sensor_id;sensor_type;location;lat;lon;timestamp;P1;durP1;ratioP1;P2;durP2;ratioP2
2710;SDS011;20721;47.402;8.550;2023-08-07T00:00:23;1.56;;;1.56;;
2710;SDS011;20721;47.402;8.550;2023-08-07T00:02:23;1.32;;;1.32;;
2710;SDS011;20721;47.402;8.550;2023-08-07T00:04:23;1.51;;;1.51;;
2710;SDS011;20721;47.402;8.550;2023-08-07T00:06:23;1.53;;;1.53;;
2710;SDS011;20721;47.402;8.550;2023-08-07T00:08:23;1.46;;;1.45;;
2710;SDS011;20721;47.402;8.550;2023-08-07T00:10:24;1.55;;;1.55;;
2710;SDS011;20721;47.402;8.550;2023-08-07T00:13:23;1.32;;;1.31;;
2710;SDS011;20721;47.402;8.550;2023-08-07T00:16:23;1.42;;;1.42;;
2710;SDS011;20721;47.402;8.550;2023-08-07T00:19:23;1.63;;;1.63;;
2710;SDS011;20721;47.402;8.550;2023-08-07T00:21:23;1.25;;;1.25;;
2710;SDS011;20721;47.402;8.550;2023-08-07T00:23:23;1.41;;;1.41;;
2710;SDS011;20721;47.402;8.550;2023-08-07T00:25:23;1.44;;;1.44;;
2710;SDS011;20721;47.402;8.550;2023-08-07T00:27:24;1.61;;;1.60;;
2710;SDS011;20721;47.402;8.550;2023-08-07T00:29:23;1.17;;;1.17;;
2710;SDS011;20721;47.402;8.550;2023-08-07T00:33:23;1.76;;;1.76;;
2710;SDS011;20721;47.402;8.550;2023-08-07T00:35:23;1.38;;;1.38;;
2710;SDS011;20721;47.402;8.550;2023-08-07T00:38:23;1.41;;;1.41;;
2710;SDS011;20721;47.402;8.550;2023-08-07T00:40:23;1.40;;;1.40;;
2710;SDS011;20721;47.402;8.550;2023-08-07T00:43:23;1.53;;;1.53;;
2710;SDS011;20721;47.402;8.550;2023-08-07T00:45:23;1.49;;;1.49;;
2710;SDS011;20721;47.402;8.550;2023-08-07T00:47:23;1.59;;;1.59;;
2710;SDS011;20721;47.402;8.550;2023-08-07T00:49:23;1.61;;;1.61;;
2710;SDS011;20721;47.402;8.550;2023-08-07T00:51:24;1.25;;;1.25;;
2710;SDS011;20721;47.402;8.550;2023-08-07T00:54:25;1.18;;;1.18;;
2710;SDS011;20721;47.402;8.550;2023-08-07T00:56:23;1.28;;;1.28;;
2710;SDS011;20721;47.402;8.550;2023-08-07T00:58:23;1.46;;;1.45;;
2710;SDS011;20721;47.402;8.550;2023-08-07T01:00:25;1.33;;;1.32;;
2710;SDS011;20721;47.402;8.550;2023-08-07T01:02:24;1.56;;;1.55;;
2710;SDS011;20721;47.402;8.550;2023-08-07T01:06:23;2.01;;;2.00;;
2710;SDS011;20721;47.402;8.550;2023-08-07T01:08:24;1.77;;;1.77;;
2710;SDS011;20721;47.402;8.550;2023-08-07T01:11:33;1.55;;;1.55;;
2710;SDS011;20721;47.402;8.550;2023-08-07T01:13:35;1.59;;;1.59;;
2710;SDS011;20721;47.402;8.550;2023-08-07T01:15:27;1.51;;;1.50;;
2710;SDS011;20721;47.402;8.550;2023-08-07T01:17:25;1.83;;;1.83;;
2710;SDS011;20721;47.402;8.550;2023-08-07T01:19:29;1.85;;;1.84;;
2710;SDS011;20721;47.402;8.550;2023-08-07T01:21:27;1.46;;;1.45;;
2710;SDS011;20721;47.402;8.550;2023-08-07T01:23:23;1.57;;;1.57;;
2710;SDS011;20721;47.402;8.550;2023-08-07T01:26:24;1.52;;;1.52;;
2710;SDS011;20721;47.402;8.550;2023-08-07T01:28:46;1.40;;;1.39;;
2710;SDS011;20721;47.402;8.550;2023-08-07T01:31:25;1.74;;;1.74;;
2710;SDS011;20721;47.402;8.550;2023-08-07T01:33:34;1.75;;;1.75;;
2710;SDS011;20721;47.402;8.550;2023-08-07T01:38:25;1.50;;;1.50;;
2710;SDS011;20721;47.402;8.550;2023-08-07T01:41:23;1.33;;;1.33;;
2710;SDS011;20721;47.402;8.550;2023-08-07T01:43:23;1.46;;;1.46;;
2710;SDS011;20721;47.402;8.550;2023-08-07T01:45:25;1.76;;;1.76;;
2710;SDS011;20721;47.402;8.550;2023-08-07T01:47:23;1.40;;;1.40;;
2710;SDS011;20721;47.402;8.550;2023-08-07T01:50:23;1.80;;;1.80;;
2710;SDS011;20721;47.402;8.550;2023-08-07T01:52:23;1.73;;;1.73;;
2710;SDS011;20721;47.402;8.550;2023-08-07T01:56:23;1.50;;;1.50;;
2710;SDS011;20721;47.402;8.550;2023-08-07T01:58:23;1.40;;;1.40;;
2710;SDS011;20721;47.402;8.550;2023-08-07T02:00:23;1.30;;;1.30;;
2710;SDS011;20721;47.402;8.550;2023-08-07T02:02:23;1.45;;;1.45;;
2710;SDS011;20721;47.402;8.550;2023-08-07T02:04:23;1.58;;;1.58;;
2710;SDS011;20721;47.402;8.550;2023-08-07T02:06:23;1.34;;;1.34;;
2710;SDS011;20721;47.402;8.550;2023-08-07T02:08:24;1.41;;;1.41;;
2710;SDS011;20721;47.402;8.550;2023-08-07T02:10:23;1.31;;;1.31;;
2710;SDS011;20721;47.402;8.550;2023-08-07T02:13:23;1.23;;;1.23;;
2710;SDS011;20721;47.402;8.550;2023-08-07T02:15:23;1.60;;;1.60;;
2710;SDS011;20721;47.402;8.550;2023-08-07T02:17:24;1.36;;;1.36;;
2710;SDS011;20721;47.402;8.550;2023-08-07T02:19:23;1.49;;;1.49;;
2710;SDS011;20721;47.402;8.550;2023-08-07T02:21:23;1.45;;;1.45;;
2710;SDS011;20721;47.402;8.550;2023-08-07T02:24:23;1.51;;;1.51;;
2710;SDS011;20721;47.402;8.550;2023-08-07T02:26:23;1.50;;;1.50;;
2710;SDS011;20721;47.402;8.550;2023-08-07T02:28:23;1.73;;;1.73;;
2710;SDS011;20721;47.402;8.550;2023-08-07T02:31:23;1.41;;;1.41;;
2710;SDS011;20721;47.402;8.550;2023-08-07T02:33:23;1.71;;;1.71;;
2710;SDS011;20721;47.402;8.550;2023-08-07T02:36:23;1.34;;;1.34;;
2710;SDS011;20721;47.402;8.550;2023-08-07T02:39:24;1.34;;;1.34;;
2710;SDS011;20721;47.402;8.550;2023-08-07T02:41:23;1.54;;;1.54;;
2710;SDS011;20721;47.402;8.550;2023-08-07T02:43:23;1.26;;;1.26;;
2710;SDS011;20721;47.402;8.550;2023-08-07T02:45:23;1.24;;;1.24;;
2710;SDS011;20721;47.402;8.550;2023-08-07T02:48:24;1.58;;;1.58;;
2710;SDS011;20721;47.402;8.550;2023-08-07T02:50:23;1.73;;;1.73;;
2710;SDS011;20721;47.402;8.550;2023-08-07T02:52:23;1.91;;;1.91;;
2710;SDS011;20721;47.402;8.550;2023-08-07T02:54:23;1.14;;;1.14;;
2710;SDS011;20721;47.402;8.550;2023-08-07T02:56:23;1.52;;;1.52;;
2710;SDS011;20721;47.402;8.550;2023-08-07T02:58:23;1.44;;;1.44;;
2710;SDS011;20721;47.402;8.550;2023-08-07T03:00:23;1.37;;;1.37;;
2710;SDS011;20721;47.402;8.550;2023-08-07T03:02:23;1.58;;;1.58;;
2710;SDS011;20721;47.402;8.550;2023-08-07T03:04:23;1.54;;;1.54;;
2710;SDS011;20721;47.402;8.550;2023-08-07T03:06:23;1.13;;;1.13;;
2710;SDS011;20721;47.402;8.550;2023-08-07T03:08:23;1.22;;;1.22;;
2710;SDS011;20721;47.402;8.550;2023-08-07T03:10:23;1.52;;;1.52;;
2710;SDS011;20721;47.402;8.550;2023-08-07T03:12:23;1.44;;;1.44;;
2710;SDS011;20721;47.402;8.550;2023-08-07T03:14:23;1.46;;;1.46;;
2710;SDS011;20721;47.402;8.550;2023-08-07T03:16:24;1.39;;;1.39;;
2710;SDS011;20721;47.402;8.550;2023-08-07T03:18:23;1.38;;;1.38;;
2710;SDS011;20721;47.402;8.550;2023-08-07T03:20:23;1.07;;;1.07;;
2710;SDS011;20721;47.402;8.550;2023-08-07T03:22:23;1.24;;;1.24;;
2710;SDS011;20721;47.402;8.550;2023-08-07T03:24:23;1.45;;;1.45;;
2710;SDS011;20721;47.402;8.550;2023-08-07T03:26:29;1.36;;;1.36;;
2710;SDS011;20721;47.402;8.550;2023-08-07T03:28:23;1.15;;;1.15;;
2710;SDS011;20721;47.402;8.550;2023-08-07T03:30:23;1.40;;;1.40;;
2710;SDS011;20721;47.402;8.550;2023-08-07T03:32:23;1.09;;;1.09;;
2710;SDS011;20721;47.402;8.550;2023-08-07T03:34:23;1.45;;;1.45;;
2710;SDS011;20721;47.402;8.550;2023-08-07T03:36:23;1.45;;;1.45;;
2710;SDS011;20721;47.402;8.550;2023-08-07T03:39:23;1.52;;;1.52;;
2710;SDS011;20721;47.402;8.550;2023-08-07T03:41:23;1.14;;;1.14;;
2710;SDS011;20721;47.402;8.550;2023-08-07T03:45:24;1.03;;;1.03;;
2710;SDS011;20721;47.402;8.550;2023-08-07T03:47:24;1.20;;;1.19;;
2710;SDS011;20721;47.402;8.550;2023-08-07T03:49:23;1.44;;;1.43;;
2710;SDS011;20721;47.402;8.550;2023-08-07T03:51:26;1.17;;;1.16;;
2710;SDS011;20721;47.402;8.550;2023-08-07T03:53:23;1.13;;;1.12;;
2710;SDS011;20721;47.402;8.550;2023-08-07T03:55:23;1.40;;;1.39;;
2710;SDS011;20721;47.402;8.550;2023-08-07T03:58:23;1.36;;;1.35;;
2710;SDS011;20721;47.402;8.550;2023-08-07T04:00:24;1.48;;;1.48;;
2710;SDS011;20721;47.402;8.550;2023-08-07T04:02:23;1.29;;;1.29;;
2710;SDS011;20721;47.402;8.550;2023-08-07T04:05:24;1.06;;;1.06;;
2710;SDS011;20721;47.402;8.550;2023-08-07T04:07:23;1.15;;;1.14;;
2710;SDS011;20721;47.402;8.550;2023-08-07T04:09:23;1.38;;;1.38;;
2710;SDS011;20721;47.402;8.550;2023-08-07T04:13:23;1.36;;;1.36;;
2710;SDS011;20721;47.402;8.550;2023-08-07T04:16:24;1.38;;;1.38;;
2710;SDS011;20721;47.402;8.550;2023-08-07T04:18:24;1.22;;;1.22;;
2710;SDS011;20721;47.402;8.550;2023-08-07T04:20:24;1.33;;;1.32;;
2710;SDS011;20721;47.402;8.550;2023-08-07T04:23:24;1.12;;;1.12;;
2710;SDS011;20721;47.402;8.550;2023-08-07T04:25:24;1.26;;;1.26;;
2710;SDS011;20721;47.402;8.550;2023-08-07T04:27:24;1.01;;;1.01;;
2710;SDS011;20721;47.402;8.550;2023-08-07T04:29:24;1.49;;;1.48;;
2710;SDS011;20721;47.402;8.550;2023-08-07T04:31:24;1.64;;;1.63;;
2710;SDS011;20721;47.402;8.550;2023-08-07T04:33:24;1.12;;;1.12;;
2710;SDS011;20721;47.402;8.550;2023-08-07T04:35:24;1.07;;;1.07;;
2710;SDS011;20721;47.402;8.550;2023-08-07T04:37:24;1.58;;;1.58;;
2710;SDS011;20721;47.402;8.550;2023-08-07T04:39:24;1.09;;;1.09;;
2710;SDS011;20721;47.402;8.550;2023-08-07T04:41:24;1.52;;;1.52;;
2710;SDS011;20721;47.402;8.550;2023-08-07T04:43:25;1.29;;;1.29;;
2710;SDS011;20721;47.402;8.550;2023-08-07T04:45:24;1.06;;;1.06;;
2710;SDS011;20721;47.402;8.550;2023-08-07T04:47:24;1.43;;;1.43;;
2710;SDS011;20721;47.402;8.550;2023-08-07T04:51:24;2.01;;;2.01;;
2710;SDS011;20721;47.402;8.550;2023-08-07T04:53:24;1.51;;;1.51;;
2710;SDS011;20721;47.402;8.550;2023-08-07T04:55:25;1.25;;;1.25;;
2710;SDS011;20721;47.402;8.550;2023-08-07T04:58:24;1.49;;;1.49;;
2710;SDS011;20721;47.402;8.550;2023-08-07T05:01:24;1.52;;;1.52;;
2710;SDS011;20721;47.402;8.550;2023-08-07T05:03:26;1.39;;;1.39;;
2710;SDS011;20721;47.402;8.550;2023-08-07T05:05:25;1.25;;;1.25;;
2710;SDS011;20721;47.402;8.550;2023-08-07T05:07:24;1.14;;;1.14;;
2710;SDS011;20721;47.402;8.550;2023-08-07T05:09:24;1.29;;;1.29;;
2710;SDS011;20721;47.402;8.550;2023-08-07T05:11:25;1.33;;;1.33;;
2710;SDS011;20721;47.402;8.550;2023-08-07T05:13:24;1.37;;;1.37;;
2710;SDS011;20721;47.402;8.550;2023-08-07T05:16:24;1.53;;;1.53;;
2710;SDS011;20721;47.402;8.550;2023-08-07T05:19:24;1.28;;;1.28;;
2710;SDS011;20721;47.402;8.550;2023-08-07T05:21:24;1.28;;;1.28;;
2710;SDS011;20721;47.402;8.550;2023-08-07T05:23:24;1.71;;;1.71;;
2710;SDS011;20721;47.402;8.550;2023-08-07T05:25:26;1.83;;;1.83;;
2710;SDS011;20721;47.402;8.550;2023-08-07T05:27:24;2.56;;;2.56;;
2710;SDS011;20721;47.402;8.550;2023-08-07T05:29:24;2.40;;;2.40;;
2710;SDS011;20721;47.402;8.550;2023-08-07T05:31:24;1.69;;;1.68;;
2710;SDS011;20721;47.402;8.550;2023-08-07T05:33:25;1.95;;;1.93;;
2710;SDS011;20721;47.402;8.550;2023-08-07T05:36:24;1.67;;;1.63;;
2710;SDS011;20721;47.402;8.550;2023-08-07T05:38:24;1.76;;;1.76;;
2710;SDS011;20721;47.402;8.550;2023-08-07T05:40:24;2.61;;;2.61;;
2710;SDS011;20721;47.402;8.550;2023-08-07T05:42:24;1.87;;;1.86;;
2710;SDS011;20721;47.402;8.550;2023-08-07T05:44:24;1.65;;;1.63;;
2710;SDS011;20721;47.402;8.550;2023-08-07T05:46:24;2.79;;;2.77;;
2710;SDS011;20721;47.402;8.550;2023-08-07T05:48:25;2.06;;;2.04;;
2710;SDS011;20721;47.402;8.550;2023-08-07T05:50:24;1.61;;;1.60;;
2710;SDS011;20721;47.402;8.550;2023-08-07T05:52:24;1.47;;;1.47;;
2710;SDS011;20721;47.402;8.550;2023-08-07T05:54:24;1.05;;;1.05;;
2710;SDS011;20721;47.402;8.550;2023-08-07T05:56:24;1.23;;;1.23;;
2710;SDS011;20721;47.402;8.550;2023-08-07T05:58:24;1.41;;;1.41;;
2710;SDS011;20721;47.402;8.550;2023-08-07T06:00:27;1.22;;;1.21;;
2710;SDS011;20721;47.402;8.550;2023-08-07T06:02:24;1.28;;;1.28;;
2710;SDS011;20721;47.402;8.550;2023-08-07T06:04:24;1.01;;;1.01;;
2710;SDS011;20721;47.402;8.550;2023-08-07T06:06:24;1.48;;;1.48;;
2710;SDS011;20721;47.402;8.550;2023-08-07T06:08:24;1.15;;;1.15;;
2710;SDS011;20721;47.402;8.550;2023-08-07T06:10:24;2.50;;;2.50;;
2710;SDS011;20721;47.402;8.550;2023-08-07T06:12:24;2.10;;;2.07;;
2710;SDS011;20721;47.402;8.550;2023-08-07T06:14:27;1.46;;;1.46;;
2710;SDS011;20721;47.402;8.550;2023-08-07T06:16:24;1.06;;;1.04;;
2710;SDS011;20721;47.402;8.550;2023-08-07T06:18:24;1.00;;;1.00;;
2710;SDS011;20721;47.402;8.550;2023-08-07T06:20:26;0.97;;;0.97;;
2710;SDS011;20721;47.402;8.550;2023-08-07T06:22:24;0.95;;;0.95;;
2710;SDS011;20721;47.402;8.550;2023-08-07T06:24:24;1.11;;;1.11;;
2710;SDS011;20721;47.402;8.550;2023-08-07T06:26:24;1.17;;;1.17;;
2710;SDS011;20721;47.402;8.550;2023-08-07T06:28:24;1.28;;;1.28;;
2710;SDS011;20721;47.402;8.550;2023-08-07T06:30:24;0.96;;;0.96;;
2710;SDS011;20721;47.402;8.550;2023-08-07T06:32:24;1.26;;;1.25;;
2710;SDS011;20721;47.402;8.550;2023-08-07T06:34:24;1.48;;;1.47;;
2710;SDS011;20721;47.402;8.550;2023-08-07T06:36:24;1.06;;;1.06;;
2710;SDS011;20721;47.402;8.550;2023-08-07T06:38:24;1.43;;;1.43;;
2710;SDS011;20721;47.402;8.550;2023-08-07T06:40:24;1.13;;;1.13;;
2710;SDS011;20721;47.402;8.550;2023-08-07T06:42:24;0.80;;;0.80;;
2710;SDS011;20721;47.402;8.550;2023-08-07T06:44:24;1.25;;;1.25;;
2710;SDS011;20721;47.402;8.550;2023-08-07T06:46:24;0.79;;;0.79;;
2710;SDS011;20721;47.402;8.550;2023-08-07T06:48:24;0.95;;;0.95;;
2710;SDS011;20721;47.402;8.550;2023-08-07T06:50:24;1.57;;;1.56;;
2710;SDS011;20721;47.402;8.550;2023-08-07T06:52:24;0.92;;;0.92;;
2710;SDS011;20721;47.402;8.550;2023-08-07T06:54:24;1.09;;;1.09;;
2710;SDS011;20721;47.402;8.550;2023-08-07T06:56:24;0.98;;;0.98;;
2710;SDS011;20721;47.402;8.550;2023-08-07T06:58:24;1.13;;;1.13;;
2710;SDS011;20721;47.402;8.550;2023-08-07T07:00:25;0.87;;;0.86;;
2710;SDS011;20721;47.402;8.550;2023-08-07T07:02:24;0.80;;;0.80;;
2710;SDS011;20721;47.402;8.550;2023-08-07T07:04:24;0.97;;;0.97;;
2710;SDS011;20721;47.402;8.550;2023-08-07T07:06:24;1.30;;;1.30;;
2710;SDS011;20721;47.402;8.550;2023-08-07T07:08:24;1.20;;;1.20;;
2710;SDS011;20721;47.402;8.550;2023-08-07T07:10:24;1.00;;;1.00;;
2710;SDS011;20721;47.402;8.550;2023-08-07T07:12:24;0.90;;;0.90;;
2710;SDS011;20721;47.402;8.550;2023-08-07T07:14:24;1.03;;;1.03;;
2710;SDS011;20721;47.402;8.550;2023-08-07T07:16:24;0.97;;;0.97;;
2710;SDS011;20721;47.402;8.550;2023-08-07T07:18:24;1.19;;;1.19;;
2710;SDS011;20721;47.402;8.550;2023-08-07T07:20:24;1.09;;;1.09;;
2710;SDS011;20721;47.402;8.550;2023-08-07T07:22:24;1.20;;;1.20;;
2710;SDS011;20721;47.402;8.550;2023-08-07T07:24:24;0.90;;;0.90;;
2710;SDS011;20721;47.402;8.550;2023-08-07T07:26:24;1.36;;;1.36;;
2710;SDS011;20721;47.402;8.550;2023-08-07T07:28:24;1.13;;;1.13;;
2710;SDS011;20721;47.402;8.550;2023-08-07T07:30:24;1.10;;;1.10;;
2710;SDS011;20721;47.402;8.550;2023-08-07T07:32:24;1.13;;;1.13;;
2710;SDS011;20721;47.402;8.550;2023-08-07T07:34:24;1.14;;;1.14;;
2710;SDS011;20721;47.402;8.550;2023-08-07T07:36:28;0.73;;;0.73;;
2710;SDS011;20721;47.402;8.550;2023-08-07T07:38:25;0.93;;;0.93;;
2710;SDS011;20721;47.402;8.550;2023-08-07T07:40:24;1.14;;;1.14;;
2710;SDS011;20721;47.402;8.550;2023-08-07T07:42:24;1.13;;;1.13;;
2710;SDS011;20721;47.402;8.550;2023-08-07T07:44:24;1.07;;;1.07;;
2710;SDS011;20721;47.402;8.550;2023-08-07T07:46:25;1.00;;;1.00;;
2710;SDS011;20721;47.402;8.550;2023-08-07T07:48:24;1.18;;;1.18;;
2710;SDS011;20721;47.402;8.550;2023-08-07T07:50:24;1.33;;;1.33;;
2710;SDS011;20721;47.402;8.550;2023-08-07T07:52:24;1.58;;;1.58;;
2710;SDS011;20721;47.402;8.550;2023-08-07T07:54:27;1.20;;;1.20;;
2710;SDS011;20721;47.402;8.550;2023-08-07T07:56:24;1.04;;;1.04;;
2710;SDS011;20721;47.402;8.550;2023-08-07T07:58:24;1.31;;;1.31;;
2710;SDS011;20721;47.402;8.550;2023-08-07T08:00:24;1.59;;;1.59;;
2710;SDS011;20721;47.402;8.550;2023-08-07T08:02:26;1.18;;;1.18;;
2710;SDS011;20721;47.402;8.550;2023-08-07T08:04:24;1.25;;;1.25;;
2710;SDS011;20721;47.402;8.550;2023-08-07T08:06:24;1.11;;;1.11;;
2710;SDS011;20721;47.402;8.550;2023-08-07T08:08:24;1.21;;;1.20;;
2710;SDS011;20721;47.402;8.550;2023-08-07T08:10:24;1.23;;;1.23;;
2710;SDS011;20721;47.402;8.550;2023-08-07T08:12:24;2.09;;;2.09;;
2710;SDS011;20721;47.402;8.550;2023-08-07T08:14:24;1.38;;;1.38;;
2710;SDS011;20721;47.402;8.550;2023-08-07T08:16:25;1.20;;;1.20;;
2710;SDS011;20721;47.402;8.550;2023-08-07T08:18:24;1.81;;;1.81;;
2710;SDS011;20721;47.402;8.550;2023-08-07T08:20:25;1.53;;;1.53;;
2710;SDS011;20721;47.402;8.550;2023-08-07T08:22:24;1.42;;;1.42;;
2710;SDS011;20721;47.402;8.550;2023-08-07T08:24:24;1.55;;;1.55;;
2710;SDS011;20721;47.402;8.550;2023-08-07T08:27:24;2.13;;;2.13;;
2710;SDS011;20721;47.402;8.550;2023-08-07T08:30:24;2.01;;;2.01;;
2710;SDS011;20721;47.402;8.550;2023-08-07T08:32:24;2.00;;;2.00;;
2710;SDS011;20721;47.402;8.550;2023-08-07T08:34:25;2.16;;;2.13;;
2710;SDS011;20721;47.402;8.550;2023-08-07T08:36:24;1.74;;;1.70;;
2710;SDS011;20721;47.402;8.550;2023-08-07T08:39:24;1.76;;;1.75;;
2710;SDS011;20721;47.402;8.550;2023-08-07T08:41:25;1.71;;;1.71;;
2710;SDS011;20721;47.402;8.550;2023-08-07T08:43:24;1.44;;;1.44;;
2710;SDS011;20721;47.402;8.550;2023-08-07T08:45:25;1.49;;;1.49;;
2710;SDS011;20721;47.402;8.550;2023-08-07T08:47:25;1.84;;;1.84;;
2710;SDS011;20721;47.402;8.550;2023-08-07T08:49:32;1.20;;;1.20;;
2710;SDS011;20721;47.402;8.550;2023-08-07T08:51:24;1.32;;;1.32;;
2710;SDS011;20721;47.402;8.550;2023-08-07T08:53:25;1.59;;;1.59;;
2710;SDS011;20721;47.402;8.550;2023-08-07T08:55:24;1.63;;;1.63;;
2710;SDS011;20721;47.402;8.550;2023-08-07T08:57:25;1.44;;;1.44;;
2710;SDS011;20721;47.402;8.550;2023-08-07T08:59:28;1.53;;;1.53;;
2710;SDS011;20721;47.402;8.550;2023-08-07T09:01:25;1.76;;;1.76;;
2710;SDS011;20721;47.402;8.550;2023-08-07T09:03:25;1.48;;;1.48;;
2710;SDS011;20721;47.402;8.550;2023-08-07T09:05:25;1.33;;;1.33;;
2710;SDS011;20721;47.402;8.550;2023-08-07T09:07:25;1.29;;;1.29;;
2710;SDS011;20721;47.402;8.550;2023-08-07T09:09:26;1.58;;;1.58;;
2710;SDS011;20721;47.402;8.550;2023-08-07T09:11:25;1.27;;;1.27;;
2710;SDS011;20721;47.402;8.550;2023-08-07T09:13:25;1.38;;;1.38;;
2710;SDS011;20721;47.402;8.550;2023-08-07T09:15:25;1.42;;;1.42;;
2710;SDS011;20721;47.402;8.550;2023-08-07T09:17:27;1.35;;;1.35;;
2710;SDS011;20721;47.402;8.550;2023-08-07T09:19:25;1.70;;;1.70;;
2710;SDS011;20721;47.402;8.550;2023-08-07T09:21:26;1.28;;;1.28;;
2710;SDS011;20721;47.402;8.550;2023-08-07T09:23:25;1.00;;;1.00;;
2710;SDS011;20721;47.402;8.550;2023-08-07T09:26:31;1.02;;;1.02;;
2710;SDS011;20721;47.402;8.550;2023-08-07T09:28:24;1.06;;;1.06;;
2710;SDS011;20721;47.402;8.550;2023-08-07T09:30:27;1.11;;;1.11;;
2710;SDS011;20721;47.402;8.550;2023-08-07T09:32:24;1.07;;;1.07;;
2710;SDS011;20721;47.402;8.550;2023-08-07T09:34:30;1.18;;;1.18;;
2710;SDS011;20721;47.402;8.550;2023-08-07T09:36:24;1.48;;;1.48;;
2710;SDS011;20721;47.402;8.550;2023-08-07T09:38:27;1.34;;;1.34;;
2710;SDS011;20721;47.402;8.550;2023-08-07T09:40:26;1.14;;;1.14;;
2710;SDS011;20721;47.402;8.550;2023-08-07T09:42:26;1.23;;;1.23;;
2710;SDS011;20721;47.402;8.550;2023-08-07T09:44:24;1.25;;;1.25;;
2710;SDS011;20721;47.402;8.550;2023-08-07T09:46:27;0.96;;;0.96;;
2710;SDS011;20721;47.402;8.550;2023-08-07T09:48:38;0.92;;;0.92;;
2710;SDS011;20721;47.402;8.550;2023-08-07T09:50:26;1.32;;;1.32;;
2710;SDS011;20721;47.402;8.550;2023-08-07T09:52:25;1.18;;;1.18;;
2710;SDS011;20721;47.402;8.550;2023-08-07T09:54:24;1.21;;;1.21;;
2710;SDS011;20721;47.402;8.550;2023-08-07T09:56:24;1.29;;;1.29;;
2710;SDS011;20721;47.402;8.550;2023-08-07T09:58:25;1.24;;;1.24;;
2710;SDS011;20721;47.402;8.550;2023-08-07T10:00:25;1.59;;;1.59;;
2710;SDS011;20721;47.402;8.550;2023-08-07T10:02:24;1.39;;;1.39;;
2710;SDS011;20721;47.402;8.550;2023-08-07T10:04:25;1.45;;;1.45;;
2710;SDS011;20721;47.402;8.550;2023-08-07T10:06:25;1.20;;;1.20;;
2710;SDS011;20721;47.402;8.550;2023-08-07T10:08:25;1.26;;;1.26;;
2710;SDS011;20721;47.402;8.550;2023-08-07T10:10:24;1.33;;;1.33;;
2710;SDS011;20721;47.402;8.550;2023-08-07T10:12:26;1.35;;;1.35;;
2710;SDS011;20721;47.402;8.550;2023-08-07T10:14:25;1.12;;;1.12;;
2710;SDS011;20721;47.402;8.550;2023-08-07T10:16:25;1.40;;;1.40;;
2710;SDS011;20721;47.402;8.550;2023-08-07T10:18:24;1.06;;;1.06;;
2710;SDS011;20721;47.402;8.550;2023-08-07T10:20:26;1.18;;;1.18;;
2710;SDS011;20721;47.402;8.550;2023-08-07T10:22:26;1.18;;;1.18;;
2710;SDS011;20721;47.402;8.550;2023-08-07T10:24:25;1.49;;;1.49;;
2710;SDS011;20721;47.402;8.550;2023-08-07T10:26:25;1.36;;;1.36;;
2710;SDS011;20721;47.402;8.550;2023-08-07T10:28:26;1.38;;;1.38;;
2710;SDS011;20721;47.402;8.550;2023-08-07T10:30:26;1.71;;;1.71;;
2710;SDS011;20721;47.402;8.550;2023-08-07T10:33:25;1.50;;;1.50;;
2710;SDS011;20721;47.402;8.550;2023-08-07T10:35:44;1.38;;;1.38;;
2710;SDS011;20721;47.402;8.550;2023-08-07T10:37:55;1.32;;;1.32;;
2710;SDS011;20721;47.402;8.550;2023-08-07T10:39:25;1.51;;;1.51;;
2710;SDS011;20721;47.402;8.550;2023-08-07T10:41:25;0.99;;;0.99;;
2710;SDS011;20721;47.402;8.550;2023-08-07T10:43:28;1.33;;;1.33;;
2710;SDS011;20721;47.402;8.550;2023-08-07T10:45:27;1.39;;;1.39;;
2710;SDS011;20721;47.402;8.550;2023-08-07T10:47:32;1.69;;;1.69;;
2710;SDS011;20721;47.402;8.550;2023-08-07T10:49:55;1.42;;;1.42;;
2710;SDS011;20721;47.402;8.550;2023-08-07T10:51:28;1.42;;;1.42;;
2710;SDS011;20721;47.402;8.550;2023-08-07T10:53:43;1.48;;;1.48;;
2710;SDS011;20721;47.402;8.550;2023-08-07T10:55:25;1.51;;;1.51;;
2710;SDS011;20721;47.402;8.550;2023-08-07T10:57:25;1.51;;;1.51;;
2710;SDS011;20721;47.402;8.550;2023-08-07T10:59:25;1.62;;;1.62;;
2710;SDS011;20721;47.402;8.550;2023-08-07T11:03:30;1.19;;;1.19;;
2710;SDS011;20721;47.402;8.550;2023-08-07T11:05:25;1.16;;;1.16;;
2710;SDS011;20721;47.402;8.550;2023-08-07T11:07:32;1.50;;;1.50;;
2710;SDS011;20721;47.402;8.550;2023-08-07T11:09:25;1.46;;;1.46;;
2710;SDS011;20721;47.402;8.550;2023-08-07T11:11:26;1.29;;;1.29;;
2710;SDS011;20721;47.402;8.550;2023-08-07T11:14:26;1.15;;;1.15;;
2710;SDS011;20721;47.402;8.550;2023-08-07T11:16:25;1.38;;;1.38;;
2710;SDS011;20721;47.402;8.550;2023-08-07T11:18:27;1.14;;;1.14;;
2710;SDS011;20721;47.402;8.550;2023-08-07T11:20:25;1.26;;;1.26;;
2710;SDS011;20721;47.402;8.550;2023-08-07T11:22:25;1.31;;;1.31;;
2710;SDS011;20721;47.402;8.550;2023-08-07T11:24:26;1.28;;;1.28;;
2710;SDS011;20721;47.402;8.550;2023-08-07T11:26:25;2.10;;;2.10;;
2710;SDS011;20721;47.402;8.550;2023-08-07T11:28:27;1.69;;;1.69;;
2710;SDS011;20721;47.402;8.550;2023-08-07T11:30:25;1.61;;;1.61;;
2710;SDS011;20721;47.402;8.550;2023-08-07T11:32:26;2.36;;;2.36;;
2710;SDS011;20721;47.402;8.550;2023-08-07T11:34:26;2.08;;;2.08;;
2710;SDS011;20721;47.402;8.550;2023-08-07T11:36:25;2.53;;;2.53;;
2710;SDS011;20721;47.402;8.550;2023-08-07T11:38:39;1.63;;;1.63;;
2710;SDS011;20721;47.402;8.550;2023-08-07T11:40:25;1.37;;;1.37;;
2710;SDS011;20721;47.402;8.550;2023-08-07T11:42:27;1.82;;;1.82;;
2710;SDS011;20721;47.402;8.550;2023-08-07T11:44:25;1.58;;;1.58;;
2710;SDS011;20721;47.402;8.550;2023-08-07T11:46:25;1.36;;;1.36;;
2710;SDS011;20721;47.402;8.550;2023-08-07T11:48:26;1.21;;;1.21;;
2710;SDS011;20721;47.402;8.550;2023-08-07T11:50:27;1.59;;;1.59;;
2710;SDS011;20721;47.402;8.550;2023-08-07T11:52:26;1.72;;;1.72;;
2710;SDS011;20721;47.402;8.550;2023-08-07T11:54:25;1.44;;;1.44;;
2710;SDS011;20721;47.402;8.550;2023-08-07T11:56:25;1.45;;;1.45;;
2710;SDS011;20721;47.402;8.550;2023-08-07T11:58:25;1.46;;;1.46;;
2710;SDS011;20721;47.402;8.550;2023-08-07T12:00:25;1.12;;;1.12;;
2710;SDS011;20721;47.402;8.550;2023-08-07T12:02:26;2.33;;;2.33;;
2710;SDS011;20721;47.402;8.550;2023-08-07T12:04:27;3.07;;;3.07;;
2710;SDS011;20721;47.402;8.550;2023-08-07T12:06:25;3.39;;;3.38;;
2710;SDS011;20721;47.402;8.550;2023-08-07T12:08:25;1.91;;;1.91;;
2710;SDS011;20721;47.402;8.550;2023-08-07T12:10:25;2.36;;;2.36;;
2710;SDS011;20721;47.402;8.550;2023-08-07T12:12:25;2.87;;;2.87;;
2710;SDS011;20721;47.402;8.550;2023-08-07T12:14:30;2.33;;;2.32;;
2710;SDS011;20721;47.402;8.550;2023-08-07T12:16:31;2.34;;;2.31;;
2710;SDS011;20721;47.402;8.550;2023-08-07T12:18:27;3.71;;;3.63;;
2710;SDS011;20721;47.402;8.550;2023-08-07T12:20:26;4.78;;;4.78;;
2710;SDS011;20721;47.402;8.550;2023-08-07T12:22:29;2.50;;;2.50;;
2710;SDS011;20721;47.402;8.550;2023-08-07T12:24:25;2.66;;;2.66;;
2710;SDS011;20721;47.402;8.550;2023-08-07T12:27:25;1.76;;;1.76;;
2710;SDS011;20721;47.402;8.550;2023-08-07T12:29:25;1.46;;;1.46;;
2710;SDS011;20721;47.402;8.550;2023-08-07T12:31:25;1.52;;;1.52;;
2710;SDS011;20721;47.402;8.550;2023-08-07T12:33:25;0.96;;;0.96;;
2710;SDS011;20721;47.402;8.550;2023-08-07T12:35:27;1.02;;;1.02;;
2710;SDS011;20721;47.402;8.550;2023-08-07T12:37:25;1.24;;;1.24;;
2710;SDS011;20721;47.402;8.550;2023-08-07T12:39:25;1.18;;;1.18;;
2710;SDS011;20721;47.402;8.550;2023-08-07T12:41:28;0.79;;;0.79;;
2710;SDS011;20721;47.402;8.550;2023-08-07T12:43:25;0.98;;;0.98;;
2710;SDS011;20721;47.402;8.550;2023-08-07T12:45:26;2.29;;;2.29;;
2710;SDS011;20721;47.402;8.550;2023-08-07T12:47:25;2.30;;;2.30;;
2710;SDS011;20721;47.402;8.550;2023-08-07T12:49:25;1.53;;;1.53;;
2710;SDS011;20721;47.402;8.550;2023-08-07T12:51:26;1.05;;;1.05;;
2710;SDS011;20721;47.402;8.550;2023-08-07T12:53:25;3.39;;;3.39;;
2710;SDS011;20721;47.402;8.550;2023-08-07T12:55:25;3.79;;;3.79;;
2710;SDS011;20721;47.402;8.550;2023-08-07T12:57:25;4.64;;;4.64;;
2710;SDS011;20721;47.402;8.550;2023-08-07T12:59:25;3.25;;;3.25;;
2710;SDS011;20721;47.402;8.550;2023-08-07T13:01:25;2.44;;;2.44;;
2710;SDS011;20721;47.402;8.550;2023-08-07T13:03:25;1.95;;;1.95;;